Home   Weather   Austria   Lustenau   Past weeks
Flag for Austria

Past Weather in Lustenau, Vorarlberg, Austria — Yesterday and Last 2 Weeks

Currently: 77 °F. Passing clouds. (Weather station: Saint Gallen-Altenrhein, Austria). See more current weather

Past Weather in Lustenau — Graph

°F

Lustenau Temperature Yesterday

Maximum temperature yesterday: 82 °F (at 3:20 pm)
Minimum temperature yesterday: 63 °F (at 5:50 am)
Average temperature yesterday: 72 °F

High & Low Weather Summary for the Past Weeks

 TemperatureHumidityPressure
High86 °F (Jul 9, 4:20 pm)100% (Jul 6, 4:50 am)30.18 "Hg (Jul 6, 4:50 am)
Low55 °F (Jul 7, 8:50 am)35% (Jul 9, 4:50 pm)29.77 "Hg (Jul 6, 10:20 am)
Average69 °F80%30.01 "Hg
* Reported Jul 5 11:20 am — Jul 20 11:50 am, Lustenau. Weather by CustomWeather, © 2024

Note: Actual official high and low records may vary slightly from our data, if they occured in-between our weather recording intervals... More about our weather records

Lustenau Weather History for the Previous 24 Hours

Scroll right to see more
 ConditionsComfort  
Time TempWeatherWind HumidityBarometerVisibility
11:50 am
Sat, Jul 20
77 °FSunny.3 mph61%29.92 "Hg10 mi
11:20 am75 °FSunny.3 mph74%29.95 "Hg10 mi
10:20 am75 °FSunny.2 mph78%29.95 "Hg10 mi
9:20 am72 °FSunny.2 mph83%29.95 "Hg10 mi
8:50 am72 °FPassing clouds.1 mph83%29.95 "HgN/A
8:20 am72 °FPassing clouds.1 mph83%29.95 "HgN/A
7:50 am70 °FClear.2 mph88%29.95 "HgN/A
7:20 am66 °FPassing clouds.1 mph94%29.95 "HgN/A
6:50 am64 °FClear.1 mph100%29.98 "HgN/A
6:20 am64 °FScattered clouds.2 mph100%29.98 "HgN/A
5:50 am64 °FPartly sunny.1 mph100%29.98 "HgN/A
5:20 am64 °FFog.1 mph100%29.98 "Hg2 mi
4:50 am64 °FPassing clouds.2 mph100%29.98 "HgN/A
4:20 am64 °FPassing clouds.2 mph100%29.98 "HgN/A
3:50 am64 °FClear.2 mph100%29.98 "Hg10 mi
3:20 am64 °FClear.2 mph100%29.98 "Hg10 mi
2:50 am64 °FClear.2 mph100%29.98 "Hg10 mi
2:20 am66 °FClear.1 mph94%29.98 "Hg10 mi
1:50 am66 °FClear.1 mph94%30.01 "Hg10 mi
1:20 am68 °FClear.1 mph83%30.01 "Hg10 mi
12:50 am72 °FClear.3 mph73%30.01 "Hg10 mi
12:20 am72 °FClear.2 mph73%30.01 "Hg10 mi
11:20 pm
Fri, Jul 19
72 °FClear.3 mph73%30.04 "HgN/A
10:50 pm73 °FPassing clouds.6 mph69%30.04 "HgN/A
10:20 pm77 °FHaze.3 mph54%30.04 "Hg1 mi
9:50 pm77 °FClear.5 mph57%30.04 "Hg10 mi
9:20 pm77 °FClear.3 mph61%30.04 "Hg10 mi
8:20 pm77 °FPassing clouds.10 mph61%30.01 "HgN/A
7:50 pm77 °FPassing clouds.10 mph65%30.01 "HgN/A
7:20 pm79 °FPassing clouds.10 mph58%30.01 "HgN/A
6:50 pm79 °FPassing clouds.10 mph58%30.01 "HgN/A
6:20 pm81 °FPassing clouds.8 mph51%30.04 "HgN/A
5:50 pm81 °FSunny.1 mph62%30.04 "Hg10 mi
5:20 pm82 °FSunny.1 mph55%30.04 "Hg10 mi
4:50 pm82 °FPassing clouds.3 mph51%30.07 "HgN/A
3:20 pm82 °FSunny.3 mph42%30.07 "Hg10 mi
2:50 pm79 °FSunny.3 mph65%30.09 "Hg10 mi
2:20 pm79 °FSunny.3 mph65%30.09 "Hg10 mi
1:50 pm79 °FWarm.5 mph65%30.09 "HgN/A
1:20 pm77 °FSunny.5 mph74%30.09 "Hg10 mi
12:50 pm75 °FPassing clouds.6 mph78%30.12 "HgN/A
12:20 pm75 °FPassing clouds.6 mph78%30.12 "HgN/A
Weather by CustomWeather, © 2024

See weather overview